sensor_id;sensor_type;location;lat;lon;timestamp;P1;durP1;ratioP1;P2;durP2;ratioP2
22628;SDS011;11481;53.694;9.910;2023-05-06T00:01:02;6.57;;;2.20;;
22628;SDS011;11481;53.694;9.910;2023-05-06T00:03:30;6.13;;;2.15;;
22628;SDS011;11481;53.694;9.910;2023-05-06T00:05:57;7.40;;;2.40;;
22628;SDS011;11481;53.694;9.910;2023-05-06T00:08:24;5.57;;;2.33;;
22628;SDS011;11481;53.694;9.910;2023-05-06T00:10:51;4.68;;;2.10;;
22628;SDS011;11481;53.694;9.910;2023-05-06T00:13:17;6.43;;;2.33;;
22628;SDS011;11481;53.694;9.910;2023-05-06T00:15:44;6.03;;;2.53;;
22628;SDS011;11481;53.694;9.910;2023-05-06T00:18:11;9.07;;;3.00;;
22628;SDS011;11481;53.694;9.910;2023-05-06T00:20:37;7.47;;;2.50;;
22628;SDS011;11481;53.694;9.910;2023-05-06T00:23:04;7.75;;;2.58;;
22628;SDS011;11481;53.694;9.910;2023-05-06T00:25:31;5.43;;;2.45;;
22628;SDS011;11481;53.694;9.910;2023-05-06T00:27:57;6.32;;;2.40;;
22628;SDS011;11481;53.694;9.910;2023-05-06T00:30:24;4.75;;;2.00;;
22628;SDS011;11481;53.694;9.910;2023-05-06T00:32:51;5.88;;;2.47;;
22628;SDS011;11481;53.694;9.910;2023-05-06T00:35:17;7.43;;;2.67;;
22628;SDS011;11481;53.694;9.910;2023-05-06T00:37:44;6.68;;;2.35;;
22628;SDS011;11481;53.694;9.910;2023-05-06T00:40:12;7.35;;;2.20;;
22628;SDS011;11481;53.694;9.910;2023-05-06T00:42:39;9.50;;;2.40;;
22628;SDS011;11481;53.694;9.910;2023-05-06T00:45:06;7.55;;;2.75;;
22628;SDS011;11481;53.694;9.910;2023-05-06T00:47:33;8.25;;;2.25;;
22628;SDS011;11481;53.694;9.910;2023-05-06T00:50:00;7.22;;;2.20;;
22628;SDS011;11481;53.694;9.910;2023-05-06T00:52:27;7.20;;;2.38;;
22628;SDS011;11481;53.694;9.910;2023-05-06T00:54:53;6.43;;;2.28;;
22628;SDS011;11481;53.694;9.910;2023-05-06T00:57:21;6.95;;;2.67;;
22628;SDS011;11481;53.694;9.910;2023-05-06T00:59:48;5.40;;;2.50;;
22628;SDS011;11481;53.694;9.910;2023-05-06T01:02:15;5.95;;;2.50;;
22628;SDS011;11481;53.694;9.910;2023-05-06T01:04:42;6.82;;;3.13;;
22628;SDS011;11481;53.694;9.910;2023-05-06T01:09:56;4.80;;;2.40;;
22628;SDS011;11481;53.694;9.910;2023-05-06T01:12:36;7.85;;;2.45;;
22628;SDS011;11481;53.694;9.910;2023-05-06T01:15:16;7.32;;;2.42;;
22628;SDS011;11481;53.694;9.910;2023-05-06T01:17:51;7.40;;;2.47;;
22628;SDS011;11481;53.694;9.910;2023-05-06T01:20:20;4.85;;;2.38;;
22628;SDS011;11481;53.694;9.910;2023-05-06T01:22:47;7.75;;;2.92;;
22628;SDS011;11481;53.694;9.910;2023-05-06T01:25:18;5.68;;;2.35;;
22628;SDS011;11481;53.694;9.910;2023-05-06T01:27:46;7.95;;;2.78;;
22628;SDS011;11481;53.694;9.910;2023-05-06T01:30:16;9.18;;;2.95;;
22628;SDS011;11481;53.694;9.910;2023-05-06T01:32:49;5.30;;;2.85;;
22628;SDS011;11481;53.694;9.910;2023-05-06T01:35:27;7.78;;;2.63;;
22628;SDS011;11481;53.694;9.910;2023-05-06T01:38:41;6.22;;;2.90;;
22628;SDS011;11481;53.694;9.910;2023-05-06T01:41:13;8.52;;;2.83;;
22628;SDS011;11481;53.694;9.910;2023-05-06T01:43:42;7.78;;;2.65;;
22628;SDS011;11481;53.694;9.910;2023-05-06T01:46:12;6.95;;;2.75;;
22628;SDS011;11481;53.694;9.910;2023-05-06T01:48:42;5.70;;;2.95;;
22628;SDS011;11481;53.694;9.910;2023-05-06T01:51:11;5.07;;;2.47;;
22628;SDS011;11481;53.694;9.910;2023-05-06T01:53:37;6.63;;;2.60;;
22628;SDS011;11481;53.694;9.910;2023-05-06T01:56:04;6.72;;;2.70;;
22628;SDS011;11481;53.694;9.910;2023-05-06T01:58:31;7.75;;;2.85;;
22628;SDS011;11481;53.694;9.910;2023-05-06T02:00:57;8.88;;;3.05;;
22628;SDS011;11481;53.694;9.910;2023-05-06T02:03:24;6.55;;;2.67;;
22628;SDS011;11481;53.694;9.910;2023-05-06T02:05:51;8.60;;;2.97;;
22628;SDS011;11481;53.694;9.910;2023-05-06T02:08:18;8.57;;;3.17;;
22628;SDS011;11481;53.694;9.910;2023-05-06T02:10:45;6.57;;;3.10;;
22628;SDS011;11481;53.694;9.910;2023-05-06T02:13:11;8.77;;;3.45;;
22628;SDS011;11481;53.694;9.910;2023-05-06T02:15:38;5.95;;;3.15;;
22628;SDS011;11481;53.694;9.910;2023-05-06T02:18:05;7.55;;;3.22;;
22628;SDS011;11481;53.694;9.910;2023-05-06T02:20:31;9.23;;;3.47;;
22628;SDS011;11481;53.694;9.910;2023-05-06T02:22:58;10.43;;;3.58;;
22628;SDS011;11481;53.694;9.910;2023-05-06T02:25:25;8.30;;;3.47;;
22628;SDS011;11481;53.694;9.910;2023-05-06T02:27:51;7.90;;;3.47;;
22628;SDS011;11481;53.694;9.910;2023-05-06T02:30:18;4.90;;;2.92;;
22628;SDS011;11481;53.694;9.910;2023-05-06T02:32:45;7.55;;;3.20;;
22628;SDS011;11481;53.694;9.910;2023-05-06T02:35:12;7.38;;;2.95;;
22628;SDS011;11481;53.694;9.910;2023-05-06T02:37:38;10.55;;;3.17;;
22628;SDS011;11481;53.694;9.910;2023-05-06T02:40:05;6.10;;;2.67;;
22628;SDS011;11481;53.694;9.910;2023-05-06T02:42:34;5.82;;;3.13;;
22628;SDS011;11481;53.694;9.910;2023-05-06T02:45:01;8.50;;;3.47;;
22628;SDS011;11481;53.694;9.910;2023-05-06T02:47:27;6.82;;;2.67;;
22628;SDS011;11481;53.694;9.910;2023-05-06T02:49:54;7.05;;;3.25;;
22628;SDS011;11481;53.694;9.910;2023-05-06T02:52:20;6.65;;;3.10;;
22628;SDS011;11481;53.694;9.910;2023-05-06T02:54:47;7.35;;;3.33;;
22628;SDS011;11481;53.694;9.910;2023-05-06T02:57:14;8.82;;;3.25;;
22628;SDS011;11481;53.694;9.910;2023-05-06T02:59:40;5.80;;;3.03;;
22628;SDS011;11481;53.694;9.910;2023-05-06T03:02:07;6.72;;;3.28;;
22628;SDS011;11481;53.694;9.910;2023-05-06T03:04:34;8.73;;;3.13;;
22628;SDS011;11481;53.694;9.910;2023-05-06T03:07:01;8.25;;;3.95;;
22628;SDS011;11481;53.694;9.910;2023-05-06T03:09:27;5.20;;;2.90;;
22628;SDS011;11481;53.694;9.910;2023-05-06T03:11:55;5.63;;;2.92;;
22628;SDS011;11481;53.694;9.910;2023-05-06T03:14:21;5.68;;;2.92;;
22628;SDS011;11481;53.694;9.910;2023-05-06T03:16:48;7.00;;;3.08;;
22628;SDS011;11481;53.694;9.910;2023-05-06T03:19:14;6.68;;;3.25;;
22628;SDS011;11481;53.694;9.910;2023-05-06T03:21:41;10.18;;;3.30;;
22628;SDS011;11481;53.694;9.910;2023-05-06T03:24:08;9.75;;;3.78;;
22628;SDS011;11481;53.694;9.910;2023-05-06T03:26:35;8.18;;;3.20;;
22628;SDS011;11481;53.694;9.910;2023-05-06T03:29:02;8.23;;;3.08;;
22628;SDS011;11481;53.694;9.910;2023-05-06T03:31:28;6.50;;;3.42;;
22628;SDS011;11481;53.694;9.910;2023-05-06T03:33:55;7.38;;;3.30;;
22628;SDS011;11481;53.694;9.910;2023-05-06T03:36:21;7.10;;;3.55;;
22628;SDS011;11481;53.694;9.910;2023-05-06T03:38:53;7.75;;;3.40;;
22628;SDS011;11481;53.694;9.910;2023-05-06T03:41:20;7.20;;;3.22;;
22628;SDS011;11481;53.694;9.910;2023-05-06T03:43:46;6.55;;;3.30;;
22628;SDS011;11481;53.694;9.910;2023-05-06T03:46:13;7.03;;;3.05;;
22628;SDS011;11481;53.694;9.910;2023-05-06T03:48:40;7.70;;;3.10;;
22628;SDS011;11481;53.694;9.910;2023-05-06T03:51:06;6.15;;;3.10;;
22628;SDS011;11481;53.694;9.910;2023-05-06T03:53:33;5.90;;;3.17;;
22628;SDS011;11481;53.694;9.910;2023-05-06T03:56:00;7.95;;;3.10;;
22628;SDS011;11481;53.694;9.910;2023-05-06T03:58:26;8.43;;;3.70;;
22628;SDS011;11481;53.694;9.910;2023-05-06T04:00:53;8.52;;;3.10;;
22628;SDS011;11481;53.694;9.910;2023-05-06T04:03:19;8.50;;;3.63;;
22628;SDS011;11481;53.694;9.910;2023-05-06T04:05:47;8.65;;;2.72;;
22628;SDS011;11481;53.694;9.910;2023-05-06T04:08:15;8.40;;;3.47;;
22628;SDS011;11481;53.694;9.910;2023-05-06T04:10:42;6.47;;;3.13;;
22628;SDS011;11481;53.694;9.910;2023-05-06T04:13:08;6.15;;;3.35;;
22628;SDS011;11481;53.694;9.910;2023-05-06T04:15:35;7.40;;;3.90;;
22628;SDS011;11481;53.694;9.910;2023-05-06T04:18:03;8.68;;;3.53;;
22628;SDS011;11481;53.694;9.910;2023-05-06T04:20:32;8.10;;;3.75;;
22628;SDS011;11481;53.694;9.910;2023-05-06T04:22:59;5.88;;;3.17;;
22628;SDS011;11481;53.694;9.910;2023-05-06T04:25:26;7.88;;;3.65;;
22628;SDS011;11481;53.694;9.910;2023-05-06T04:27:53;8.23;;;3.25;;
22628;SDS011;11481;53.694;9.910;2023-05-06T04:30:20;7.50;;;3.20;;
22628;SDS011;11481;53.694;9.910;2023-05-06T04:32:47;8.38;;;3.35;;
22628;SDS011;11481;53.694;9.910;2023-05-06T04:35:14;9.52;;;3.63;;
22628;SDS011;11481;53.694;9.910;2023-05-06T04:37:41;8.35;;;3.03;;
22628;SDS011;11481;53.694;9.910;2023-05-06T04:40:09;12.38;;;3.25;;
22628;SDS011;11481;53.694;9.910;2023-05-06T04:42:37;8.45;;;3.50;;
22628;SDS011;11481;53.694;9.910;2023-05-06T04:45:04;5.65;;;3.25;;
22628;SDS011;11481;53.694;9.910;2023-05-06T04:47:31;7.95;;;3.45;;
22628;SDS011;11481;53.694;9.910;2023-05-06T04:49:57;7.50;;;4.03;;
22628;SDS011;11481;53.694;9.910;2023-05-06T04:52:24;9.00;;;3.65;;
22628;SDS011;11481;53.694;9.910;2023-05-06T04:54:51;6.22;;;3.25;;
22628;SDS011;11481;53.694;9.910;2023-05-06T04:57:17;9.35;;;3.63;;
22628;SDS011;11481;53.694;9.910;2023-05-06T04:59:44;9.18;;;3.75;;
22628;SDS011;11481;53.694;9.910;2023-05-06T05:02:11;10.38;;;3.40;;
22628;SDS011;11481;53.694;9.910;2023-05-06T05:04:38;7.18;;;3.40;;
22628;SDS011;11481;53.694;9.910;2023-05-06T05:07:04;8.82;;;3.58;;
22628;SDS011;11481;53.694;9.910;2023-05-06T05:09:33;8.65;;;3.50;;
22628;SDS011;11481;53.694;9.910;2023-05-06T05:12:01;9.55;;;3.58;;
22628;SDS011;11481;53.694;9.910;2023-05-06T05:14:28;9.07;;;3.42;;
22628;SDS011;11481;53.694;9.910;2023-05-06T05:16:55;8.88;;;3.40;;
22628;SDS011;11481;53.694;9.910;2023-05-06T05:19:21;6.57;;;3.35;;
22628;SDS011;11481;53.694;9.910;2023-05-06T05:21:48;8.50;;;3.67;;
22628;SDS011;11481;53.694;9.910;2023-05-06T05:24:15;9.88;;;3.60;;
22628;SDS011;11481;53.694;9.910;2023-05-06T05:26:42;7.18;;;3.35;;
22628;SDS011;11481;53.694;9.910;2023-05-06T05:29:09;7.20;;;3.60;;
22628;SDS011;11481;53.694;9.910;2023-05-06T05:31:36;10.43;;;3.75;;
22628;SDS011;11481;53.694;9.910;2023-05-06T05:34:02;7.85;;;3.70;;
22628;SDS011;11481;53.694;9.910;2023-05-06T05:36:29;10.85;;;4.13;;
22628;SDS011;11481;53.694;9.910;2023-05-06T05:38:56;6.30;;;3.47;;
22628;SDS011;11481;53.694;9.910;2023-05-06T05:41:23;8.02;;;3.42;;
22628;SDS011;11481;53.694;9.910;2023-05-06T05:43:51;8.70;;;3.40;;
22628;SDS011;11481;53.694;9.910;2023-05-06T05:46:18;7.85;;;3.70;;
22628;SDS011;11481;53.694;9.910;2023-05-06T05:48:44;10.50;;;3.72;;
22628;SDS011;11481;53.694;9.910;2023-05-06T05:51:11;8.40;;;3.67;;
22628;SDS011;11481;53.694;9.910;2023-05-06T05:53:38;7.32;;;3.83;;
22628;SDS011;11481;53.694;9.910;2023-05-06T05:56:05;7.25;;;3.88;;
22628;SDS011;11481;53.694;9.910;2023-05-06T05:58:32;7.05;;;3.58;;
22628;SDS011;11481;53.694;9.910;2023-05-06T06:00:59;10.05;;;3.60;;
22628;SDS011;11481;53.694;9.910;2023-05-06T06:03:28;8.73;;;4.28;;
22628;SDS011;11481;53.694;9.910;2023-05-06T06:05:54;7.03;;;3.70;;
22628;SDS011;11481;53.694;9.910;2023-05-06T06:08:21;9.35;;;4.15;;
22628;SDS011;11481;53.694;9.910;2023-05-06T06:10:48;9.45;;;3.80;;
22628;SDS011;11481;53.694;9.910;2023-05-06T06:13:14;13.75;;;4.78;;
22628;SDS011;11481;53.694;9.910;2023-05-06T06:15:41;8.63;;;3.80;;
22628;SDS011;11481;53.694;9.910;2023-05-06T06:18:08;9.00;;;3.65;;
22628;SDS011;11481;53.694;9.910;2023-05-06T06:20:36;10.98;;;4.60;;
22628;SDS011;11481;53.694;9.910;2023-05-06T06:23:03;8.20;;;4.30;;
22628;SDS011;11481;53.694;9.910;2023-05-06T06:25:29;9.90;;;3.90;;
22628;SDS011;11481;53.694;9.910;2023-05-06T06:27:56;8.55;;;3.78;;
22628;SDS011;11481;53.694;9.910;2023-05-06T06:30:23;8.45;;;3.97;;
22628;SDS011;11481;53.694;9.910;2023-05-06T06:32:51;11.60;;;4.28;;
22628;SDS011;11481;53.694;9.910;2023-05-06T06:35:19;8.82;;;3.92;;
22628;SDS011;11481;53.694;9.910;2023-05-06T06:37:45;8.98;;;3.83;;
22628;SDS011;11481;53.694;9.910;2023-05-06T06:40:12;9.77;;;4.32;;
22628;SDS011;11481;53.694;9.910;2023-05-06T06:42:39;9.77;;;3.97;;
22628;SDS011;11481;53.694;9.910;2023-05-06T06:45:07;7.60;;;3.58;;
22628;SDS011;11481;53.694;9.910;2023-05-06T06:47:34;9.98;;;4.50;;
22628;SDS011;11481;53.694;9.910;2023-05-06T06:50:02;7.78;;;4.25;;
22628;SDS011;11481;53.694;9.910;2023-05-06T06:52:31;10.50;;;4.50;;
22628;SDS011;11481;53.694;9.910;2023-05-06T06:54:57;8.63;;;4.13;;
22628;SDS011;11481;53.694;9.910;2023-05-06T06:57:24;8.85;;;4.32;;
22628;SDS011;11481;53.694;9.910;2023-05-06T06:59:51;11.73;;;4.00;;
22628;SDS011;11481;53.694;9.910;2023-05-06T07:02:22;7.82;;;4.15;;
22628;SDS011;11481;53.694;9.910;2023-05-06T07:04:48;8.40;;;3.85;;
22628;SDS011;11481;53.694;9.910;2023-05-06T07:07:15;9.52;;;4.25;;
22628;SDS011;11481;53.694;9.910;2023-05-06T07:09:41;8.88;;;3.90;;
22628;SDS011;11481;53.694;9.910;2023-05-06T07:12:09;8.30;;;4.32;;
22628;SDS011;11481;53.694;9.910;2023-05-06T07:14:36;10.07;;;4.22;;
22628;SDS011;11481;53.694;9.910;2023-05-06T07:17:03;11.30;;;4.45;;
22628;SDS011;11481;53.694;9.910;2023-05-06T07:19:30;9.35;;;4.55;;
22628;SDS011;11481;53.694;9.910;2023-05-06T07:21:57;8.45;;;4.38;;
22628;SDS011;11481;53.694;9.910;2023-05-06T07:24:23;7.93;;;4.05;;
22628;SDS011;11481;53.694;9.910;2023-05-06T07:26:50;11.40;;;4.40;;
22628;SDS011;11481;53.694;9.910;2023-05-06T07:29:16;8.70;;;4.47;;
22628;SDS011;11481;53.694;9.910;2023-05-06T07:31:43;9.70;;;4.47;;
22628;SDS011;11481;53.694;9.910;2023-05-06T07:34:10;7.53;;;4.05;;
22628;SDS011;11481;53.694;9.910;2023-05-06T07:36:36;8.65;;;4.40;;
22628;SDS011;11481;53.694;9.910;2023-05-06T07:39:10;6.82;;;3.78;;
22628;SDS011;11481;53.694;9.910;2023-05-06T07:41:37;12.68;;;4.68;;
22628;SDS011;11481;53.694;9.910;2023-05-06T07:44:04;7.93;;;4.07;;
22628;SDS011;11481;53.694;9.910;2023-05-06T07:46:31;8.35;;;3.83;;
22628;SDS011;11481;53.694;9.910;2023-05-06T07:49:00;7.95;;;3.92;;
22628;SDS011;11481;53.694;9.910;2023-05-06T07:51:28;8.23;;;4.15;;
22628;SDS011;11481;53.694;9.910;2023-05-06T07:53:54;9.10;;;4.43;;
22628;SDS011;11481;53.694;9.910;2023-05-06T07:56:21;9.50;;;4.70;;
22628;SDS011;11481;53.694;9.910;2023-05-06T07:58:47;9.80;;;4.28;;
22628;SDS011;11481;53.694;9.910;2023-05-06T08:01:14;9.63;;;4.40;;
22628;SDS011;11481;53.694;9.910;2023-05-06T08:03:41;9.65;;;3.88;;
22628;SDS011;11481;53.694;9.910;2023-05-06T08:06:09;10.07;;;4.53;;
22628;SDS011;11481;53.694;9.910;2023-05-06T08:08:37;9.63;;;4.60;;
22628;SDS011;11481;53.694;9.910;2023-05-06T08:11:03;8.30;;;4.30;;
22628;SDS011;11481;53.694;9.910;2023-05-06T08:13:30;10.52;;;4.78;;
22628;SDS011;11481;53.694;9.910;2023-05-06T08:15:58;10.95;;;4.80;;
22628;SDS011;11481;53.694;9.910;2023-05-06T08:18:27;9.20;;;5.18;;
22628;SDS011;11481;53.694;9.910;2023-05-06T08:20:55;11.20;;;4.40;;
22628;SDS011;11481;53.694;9.910;2023-05-06T08:23:22;9.95;;;4.65;;
22628;SDS011;11481;53.694;9.910;2023-05-06T08:25:48;6.95;;;3.95;;
22628;SDS011;11481;53.694;9.910;2023-05-06T08:28:15;8.20;;;3.78;;
22628;SDS011;11481;53.694;9.910;2023-05-06T08:30:42;9.80;;;4.55;;
22628;SDS011;11481;53.694;9.910;2023-05-06T08:33:10;8.48;;;4.32;;
22628;SDS011;11481;53.694;9.910;2023-05-06T08:35:38;8.15;;;4.35;;
22628;SDS011;11481;53.694;9.910;2023-05-06T08:38:05;12.10;;;4.72;;
22628;SDS011;11481;53.694;9.910;2023-05-06T08:40:31;7.57;;;4.07;;
22628;SDS011;11481;53.694;9.910;2023-05-06T08:42:58;8.75;;;4.88;;
22628;SDS011;11481;53.694;9.910;2023-05-06T08:45:29;12.23;;;4.40;;
22628;SDS011;11481;53.694;9.910;2023-05-06T08:47:57;9.85;;;4.55;;
22628;SDS011;11481;53.694;9.910;2023-05-06T08:50:25;9.30;;;4.63;;
22628;SDS011;11481;53.694;9.910;2023-05-06T08:52:52;11.23;;;4.32;;
22628;SDS011;11481;53.694;9.910;2023-05-06T08:55:19;8.82;;;4.50;;
22628;SDS011;11481;53.694;9.910;2023-05-06T08:57:49;9.75;;;4.72;;
22628;SDS011;11481;53.694;9.910;2023-05-06T09:00:18;11.45;;;4.63;;
22628;SDS011;11481;53.694;9.910;2023-05-06T09:02:45;8.80;;;4.88;;
22628;SDS011;11481;53.694;9.910;2023-05-06T09:05:11;11.48;;;4.80;;
22628;SDS011;11481;53.694;9.910;2023-05-06T09:07:38;10.48;;;4.35;;
22628;SDS011;11481;53.694;9.910;2023-05-06T09:10:06;8.93;;;4.38;;
22628;SDS011;11481;53.694;9.910;2023-05-06T09:12:43;10.75;;;5.65;;
22628;SDS011;11481;53.694;9.910;2023-05-06T09:15:10;13.45;;;4.60;;
22628;SDS011;11481;53.694;9.910;2023-05-06T09:17:38;8.95;;;4.72;;
22628;SDS011;11481;53.694;9.910;2023-05-06T09:20:06;11.55;;;4.90;;
22628;SDS011;11481;53.694;9.910;2023-05-06T09:22:37;10.50;;;4.57;;
22628;SDS011;11481;53.694;9.910;2023-05-06T09:25:07;9.20;;;4.50;;
22628;SDS011;11481;53.694;9.910;2023-05-06T09:27:37;10.90;;;4.70;;
22628;SDS011;11481;53.694;9.910;2023-05-06T09:30:04;11.43;;;4.80;;
22628;SDS011;11481;53.694;9.910;2023-05-06T09:32:36;8.70;;;4.18;;
22628;SDS011;11481;53.694;9.910;2023-05-06T09:35:06;9.25;;;4.47;;
22628;SDS011;11481;53.694;9.910;2023-05-06T09:37:33;10.77;;;4.90;;
22628;SDS011;11481;53.694;9.910;2023-05-06T09:40:00;9.63;;;4.38;;
22628;SDS011;11481;53.694;9.910;2023-05-06T09:42:28;9.90;;;4.63;;
22628;SDS011;11481;53.694;9.910;2023-05-06T09:44:56;9.25;;;4.07;;
22628;SDS011;11481;53.694;9.910;2023-05-06T09:47:32;8.38;;;4.28;;
22628;SDS011;11481;53.694;9.910;2023-05-06T09:50:00;8.55;;;4.15;;
22628;SDS011;11481;53.694;9.910;2023-05-06T09:52:28;8.80;;;4.07;;
22628;SDS011;11481;53.694;9.910;2023-05-06T09:54:56;9.57;;;3.47;;
22628;SDS011;11481;53.694;9.910;2023-05-06T09:57:23;7.22;;;3.65;;
22628;SDS011;11481;53.694;9.910;2023-05-06T09:59:50;9.07;;;4.20;;
22628;SDS011;11481;53.694;9.910;2023-05-06T10:02:18;9.80;;;5.20;;
22628;SDS011;11481;53.694;9.910;2023-05-06T10:04:45;9.13;;;4.22;;
22628;SDS011;11481;53.694;9.910;2023-05-06T10:07:16;9.57;;;4.45;;
22628;SDS011;11481;53.694;9.910;2023-05-06T10:09:48;10.40;;;4.10;;
22628;SDS011;11481;53.694;9.910;2023-05-06T10:12:16;10.60;;;3.85;;
22628;SDS011;11481;53.694;9.910;2023-05-06T10:14:44;8.23;;;4.22;;
22628;SDS011;11481;53.694;9.910;2023-05-06T10:17:11;8.73;;;4.25;;
22628;SDS011;11481;53.694;9.910;2023-05-06T10:19:38;9.85;;;4.60;;
22628;SDS011;11481;53.694;9.910;2023-05-06T10:25:03;22.25;;;12.23;;
22628;SDS011;11481;53.694;9.910;2023-05-06T10:27:52;13.60;;;5.00;;
22628;SDS011;11481;53.694;9.910;2023-05-06T10:30:19;7.85;;;4.60;;
22628;SDS011;11481;53.694;9.910;2023-05-06T10:32:47;9.35;;;4.65;;
22628;SDS011;11481;53.694;9.910;2023-05-06T10:38:28;11.13;;;5.05;;
22628;SDS011;11481;53.694;9.910;2023-05-06T10:40:59;10.35;;;4.85;;
22628;SDS011;11481;53.694;9.910;2023-05-06T10:48:35;10.52;;;4.55;;
22628;SDS011;11481;53.694;9.910;2023-05-06T10:51:26;11.25;;;4.38;;
22628;SDS011;11481;53.694;9.910;2023-05-06T10:56:30;8.75;;;4.22;;
22628;SDS011;11481;53.694;9.910;2023-05-06T10:59:07;10.15;;;3.90;;
22628;SDS011;11481;53.694;9.910;2023-05-06T11:01:36;10.20;;;4.43;;
22628;SDS011;11481;53.694;9.910;2023-05-06T11:04:10;8.13;;;3.97;;
22628;SDS011;11481;53.694;9.910;2023-05-06T11:06:43;11.02;;;4.45;;
22628;SDS011;11481;53.694;9.910;2023-05-06T11:11:47;8.43;;;4.00;;
22628;SDS011;11481;53.694;9.910;2023-05-06T11:14:27;9.68;;;4.65;;
22628;SDS011;11481;53.694;9.910;2023-05-06T11:17:07;9.23;;;4.22;;
22628;SDS011;11481;53.694;9.910;2023-05-06T11:22:46;8.60;;;3.85;;
22628;SDS011;11481;53.694;9.910;2023-05-06T11:25:13;9.18;;;4.22;;
22628;SDS011;11481;53.694;9.910;2023-05-06T11:27:40;10.10;;;4.25;;
22628;SDS011;11481;53.694;9.910;2023-05-06T11:30:07;9.75;;;5.00;;
22628;SDS011;11481;53.694;9.910;2023-05-06T11:32:39;9.05;;;4.28;;
22628;SDS011;11481;53.694;9.910;2023-05-06T11:35:08;10.85;;;4.78;;
22628;SDS011;11481;53.694;9.910;2023-05-06T11:37:36;11.30;;;4.78;;
22628;SDS011;11481;53.694;9.910;2023-05-06T11:40:12;9.88;;;4.55;;
22628;SDS011;11481;53.694;9.910;2023-05-06T11:42:40;9.30;;;4.20;;
22628;SDS011;11481;53.694;9.910;2023-05-06T11:45:08;9.25;;;4.82;;
22628;SDS011;11481;53.694;9.910;2023-05-06T11:47:37;10.55;;;4.50;;
22628;SDS011;11481;53.694;9.910;2023-05-06T11:50:09;10.93;;;4.75;;
22628;SDS011;11481;53.694;9.910;2023-05-06T11:52:38;12.27;;;5.20;;
22628;SDS011;11481;53.694;9.910;2023-05-06T11:55:06;9.38;;;4.55;;
22628;SDS011;11481;53.694;9.910;2023-05-06T11:57:35;9.95;;;4.78;;
22628;SDS011;11481;53.694;9.910;2023-05-06T12:00:06;12.70;;;4.93;;
22628;SDS011;11481;53.694;9.910;2023-05-06T12:02:36;10.10;;;4.93;;
22628;SDS011;11481;53.694;9.910;2023-05-06T12:05:03;9.15;;;5.35;;
22628;SDS011;11481;53.694;9.910;2023-05-06T12:07:30;14.48;;;5.63;;
22628;SDS011;11481;53.694;9.910;2023-05-06T12:09:57;9.15;;;4.65;;
22628;SDS011;11481;53.694;9.910;2023-05-06T12:12:28;14.82;;;5.25;;
22628;SDS011;11481;53.694;9.910;2023-05-06T12:14:57;11.10;;;5.18;;
22628;SDS011;11481;53.694;9.910;2023-05-06T12:17:24;10.20;;;5.32;;
22628;SDS011;11481;53.694;9.910;2023-05-06T12:19:51;8.88;;;4.95;;
22628;SDS011;11481;53.694;9.910;2023-05-06T12:22:18;12.95;;;5.60;;
22628;SDS011;11481;53.694;9.910;2023-05-06T12:24:47;11.80;;;5.53;;
22628;SDS011;11481;53.694;9.910;2023-05-06T12:27:26;12.38;;;5.60;;
22628;SDS011;11481;53.694;9.910;2023-05-06T12:30:00;12.93;;;6.15;;
22628;SDS011;11481;53.694;9.910;2023-05-06T12:32:29;13.90;;;5.88;;
22628;SDS011;11481;53.694;9.910;2023-05-06T12:34:56;12.15;;;5.85;;
22628;SDS011;11481;53.694;9.910;2023-05-06T12:37:26;10.85;;;5.35;;
22628;SDS011;11481;53.694;9.910;2023-05-06T12:39:53;10.02;;;5.28;;
22628;SDS011;11481;53.694;9.910;2023-05-06T12:42:24;14.25;;;6.40;;
22628;SDS011;11481;53.694;9.910;2023-05-06T12:44:50;14.70;;;6.25;;
22628;SDS011;11481;53.694;9.910;2023-05-06T12:47:21;9.93;;;5.15;;
22628;SDS011;11481;53.694;9.910;2023-05-06T12:49:53;12.20;;;5.80;;
22628;SDS011;11481;53.694;9.910;2023-05-06T12:52:25;13.73;;;6.13;;
22628;SDS011;11481;53.694;9.910;2023-05-06T12:54:54;14.55;;;6.85;;
22628;SDS011;11481;53.694;9.910;2023-05-06T12:57:21;16.13;;;6.70;;
22628;SDS011;11481;53.694;9.910;2023-05-06T12:59:48;11.23;;;6.07;;
22628;SDS011;11481;53.694;9.910;2023-05-06T13:02:15;13.02;;;5.85;;
22628;SDS011;11481;53.694;9.910;2023-05-06T13:04:42;14.10;;;5.80;;
22628;SDS011;11481;53.694;9.910;2023-05-06T13:07:11;11.45;;;5.63;;
22628;SDS011;11481;53.694;9.910;2023-05-06T13:09:38;11.77;;;5.70;;
22628;SDS011;11481;53.694;9.910;2023-05-06T13:12:05;11.75;;;5.60;;
22628;SDS011;11481;53.694;9.910;2023-05-06T13:14:32;11.95;;;5.32;;
22628;SDS011;11481;53.694;9.910;2023-05-06T13:17:04;11.07;;;5.28;;
22628;SDS011;11481;53.694;9.910;2023-05-06T13:19:33;11.68;;;5.88;;
22628;SDS011;11481;53.694;9.910;2023-05-06T13:22:00;11.80;;;5.13;;
22628;SDS011;11481;53.694;9.910;2023-05-06T13:24:28;14.73;;;5.90;;
22628;SDS011;11481;53.694;9.910;2023-05-06T13:26:54;11.93;;;5.28;;
22628;SDS011;11481;53.694;9.910;2023-05-06T13:29:23;10.32;;;4.82;;
22628;SDS011;11481;53.694;9.910;2023-05-06T13:31:50;11.20;;;5.43;;
22628;SDS011;11481;53.694;9.910;2023-05-06T13:34:17;11.80;;;5.07;;
22628;SDS011;11481;53.694;9.910;2023-05-06T13:36:44;10.80;;;5.25;;
22628;SDS011;11481;53.694;9.910;2023-05-06T13:39:13;9.02;;;4.93;;
22628;SDS011;11481;53.694;9.910;2023-05-06T13:41:41;10.73;;;5.47;;
22628;SDS011;11481;53.694;9.910;2023-05-06T13:44:08;12.50;;;5.97;;
22628;SDS011;11481;53.694;9.910;2023-05-06T13:46:37;10.75;;;5.38;;
22628;SDS011;11481;53.694;9.910;2023-05-06T13:49:03;11.32;;;5.38;;
22628;SDS011;11481;53.694;9.910;2023-05-06T13:51:31;11.80;;;5.57;;
22628;SDS011;11481;53.694;9.910;2023-05-06T13:54:01;15.20;;;6.03;;
22628;SDS011;11481;53.694;9.910;2023-05-06T13:56:28;13.30;;;6.18;;
22628;SDS011;11481;53.694;9.910;2023-05-06T13:58:55;16.05;;;6.47;;
22628;SDS011;11481;53.694;9.910;2023-05-06T14:01:22;13.02;;;6.00;;
22628;SDS011;11481;53.694;9.910;2023-05-06T14:03:49;15.50;;;6.75;;
22628;SDS011;11481;53.694;9.910;2023-05-06T14:06:16;10.95;;;5.57;;
22628;SDS011;11481;53.694;9.910;2023-05-06T14:08:42;11.43;;;6.05;;
22628;SDS011;11481;53.694;9.910;2023-05-06T14:11:09;13.05;;;6.70;;
22628;SDS011;11481;53.694;9.910;2023-05-06T14:13:36;13.60;;;6.28;;
22628;SDS011;11481;53.694;9.910;2023-05-06T14:16:04;12.10;;;6.07;;
22628;SDS011;11481;53.694;9.910;2023-05-06T14:18:32;11.32;;;5.70;;
22628;SDS011;11481;53.694;9.910;2023-05-06T14:20:58;14.18;;;6.57;;
22628;SDS011;11481;53.694;9.910;2023-05-06T14:23:25;12.98;;;6.35;;
22628;SDS011;11481;53.694;9.910;2023-05-06T14:25:52;14.68;;;6.55;;
22628;SDS011;11481;53.694;9.910;2023-05-06T14:28:18;12.23;;;5.28;;
22628;SDS011;11481;53.694;9.910;2023-05-06T14:30:45;12.18;;;6.05;;
22628;SDS011;11481;53.694;9.910;2023-05-06T14:33:12;11.05;;;6.30;;
22628;SDS011;11481;53.694;9.910;2023-05-06T14:35:39;14.38;;;6.93;;
22628;SDS011;11481;53.694;9.910;2023-05-06T14:38:07;10.00;;;5.10;;
22628;SDS011;11481;53.694;9.910;2023-05-06T14:40:36;12.45;;;5.50;;
22628;SDS011;11481;53.694;9.910;2023-05-06T14:43:05;11.13;;;5.18;;
22628;SDS011;11481;53.694;9.910;2023-05-06T14:45:33;10.88;;;5.32;;
22628;SDS011;11481;53.694;9.910;2023-05-06T14:48:00;10.93;;;5.68;;
22628;SDS011;11481;53.694;9.910;2023-05-06T14:50:28;10.68;;;5.43;;
22628;SDS011;11481;53.694;9.910;2023-05-06T14:52:55;10.20;;;5.10;;
22628;SDS011;11481;53.694;9.910;2023-05-06T14:55:21;11.30;;;4.68;;
22628;SDS011;11481;53.694;9.910;2023-05-06T14:57:48;11.38;;;5.95;;
22628;SDS011;11481;53.694;9.910;2023-05-06T15:00:15;8.68;;;5.38;;
22628;SDS011;11481;53.694;9.910;2023-05-06T15:02:43;12.38;;;5.18;;
22628;SDS011;11481;53.694;9.910;2023-05-06T15:05:10;10.13;;;5.60;;
22628;SDS011;11481;53.694;9.910;2023-05-06T15:07:38;12.57;;;5.50;;
22628;SDS011;11481;53.694;9.910;2023-05-06T15:10:05;10.77;;;5.68;;